sensor_id;sensor_type;location;lat;lon;timestamp;temperature;humidity
25112;DHT22;13092;51.996;4.458;2023-11-18T00:00:02;8.90;99.90
25112;DHT22;13092;51.996;4.458;2023-11-18T00:03:07;8.90;99.90
25112;DHT22;13092;51.996;4.458;2023-11-18T00:05:39;8.90;99.90
25112;DHT22;13092;51.996;4.458;2023-11-18T00:08:30;8.90;99.90
25112;DHT22;13092;51.996;4.458;2023-11-18T00:11:21;8.90;99.90
25112;DHT22;13092;51.996;4.458;2023-11-18T00:14:05;8.80;99.90
25112;DHT22;13092;51.996;4.458;2023-11-18T00:17:00;8.80;99.90
25112;DHT22;13092;51.996;4.458;2023-11-18T00:19:55;8.80;99.90
25112;DHT22;13092;51.996;4.458;2023-11-18T00:22:55;8.80;99.90
25112;DHT22;13092;51.996;4.458;2023-11-18T00:25:30;8.80;99.90
25112;DHT22;13092;51.996;4.458;2023-11-18T00:28:28;8.80;99.90
25112;DHT22;13092;51.996;4.458;2023-11-18T00:31:28;8.70;99.90
25112;DHT22;13092;51.996;4.458;2023-11-18T00:34:37;8.90;99.90
25112;DHT22;13092;51.996;4.458;2023-11-18T00:37:21;8.70;99.90
25112;DHT22;13092;51.996;4.458;2023-11-18T00:39:54;8.60;99.90
25112;DHT22;13092;51.996;4.458;2023-11-18T00:42:47;8.50;99.90
25112;DHT22;13092;51.996;4.458;2023-11-18T00:45:49;8.60;99.90
25112;DHT22;13092;51.996;4.458;2023-11-18T00:48:29;8.60;99.90
25112;DHT22;13092;51.996;4.458;2023-11-18T00:51:10;8.70;99.90
25112;DHT22;13092;51.996;4.458;2023-11-18T00:53:51;8.70;99.90
25112;DHT22;13092;51.996;4.458;2023-11-18T00:56:47;8.70;99.90
25112;DHT22;13092;51.996;4.458;2023-11-18T00:59:34;8.70;99.90
25112;DHT22;13092;51.996;4.458;2023-11-18T01:02:20;8.70;99.90
25112;DHT22;13092;51.996;4.458;2023-11-18T01:05:03;8.70;99.90
25112;DHT22;13092;51.996;4.458;2023-11-18T01:07:48;8.70;99.90
25112;DHT22;13092;51.996;4.458;2023-11-18T01:10:52;8.70;99.90
25112;DHT22;13092;51.996;4.458;2023-11-18T01:13:34;8.70;99.90
25112;DHT22;13092;51.996;4.458;2023-11-18T01:16:15;8.80;99.90
25112;DHT22;13092;51.996;4.458;2023-11-18T01:21:45;8.80;99.90
25112;DHT22;13092;51.996;4.458;2023-11-18T01:24:18;8.80;99.90
25112;DHT22;13092;51.996;4.458;2023-11-18T01:26:54;8.80;99.90
25112;DHT22;13092;51.996;4.458;2023-11-18T01:29:31;8.80;99.90
25112;DHT22;13092;51.996;4.458;2023-11-18T01:32:16;8.80;99.90
25112;DHT22;13092;51.996;4.458;2023-11-18T01:35:08;8.80;99.90
25112;DHT22;13092;51.996;4.458;2023-11-18T01:37:44;8.80;99.90
25112;DHT22;13092;51.996;4.458;2023-11-18T01:40:30;8.80;99.90
25112;DHT22;13092;51.996;4.458;2023-11-18T01:43:13;8.80;99.90
25112;DHT22;13092;51.996;4.458;2023-11-18T01:45:54;8.90;99.90
25112;DHT22;13092;51.996;4.458;2023-11-18T01:48:24;8.80;99.90
25112;DHT22;13092;51.996;4.458;2023-11-18T01:51:09;8.80;99.90
25112;DHT22;13092;51.996;4.458;2023-11-18T01:53:40;8.80;99.90
25112;DHT22;13092;51.996;4.458;2023-11-18T01:56:17;8.90;99.90
25112;DHT22;13092;51.996;4.458;2023-11-18T01:59:06;8.90;99.90
25112;DHT22;13092;51.996;4.458;2023-11-18T02:01:39;8.90;99.90
25112;DHT22;13092;51.996;4.458;2023-11-18T02:04:27;8.80;99.90
25112;DHT22;13092;51.996;4.458;2023-11-18T02:06:58;8.80;99.90
25112;DHT22;13092;51.996;4.458;2023-11-18T02:09:43;8.90;99.90
25112;DHT22;13092;51.996;4.458;2023-11-18T02:12:22;8.80;99.90
25112;DHT22;13092;51.996;4.458;2023-11-18T02:14:57;8.90;99.90
25112;DHT22;13092;51.996;4.458;2023-11-18T02:17:28;8.80;99.90
25112;DHT22;13092;51.996;4.458;2023-11-18T02:19:57;8.80;99.90
25112;DHT22;13092;51.996;4.458;2023-11-18T02:22:40;8.90;99.90
25112;DHT22;13092;51.996;4.458;2023-11-18T02:25:09;8.90;99.90
25112;DHT22;13092;51.996;4.458;2023-11-18T02:27:41;8.80;99.90
25112;DHT22;13092;51.996;4.458;2023-11-18T02:30:15;8.90;99.90
25112;DHT22;13092;51.996;4.458;2023-11-18T02:33:08;9.00;99.90
25112;DHT22;13092;51.996;4.458;2023-11-18T02:35:51;8.90;99.90
25112;DHT22;13092;51.996;4.458;2023-11-18T02:38:41;8.90;99.90
25112;DHT22;13092;51.996;4.458;2023-11-18T02:41:23;8.80;99.90
25112;DHT22;13092;51.996;4.458;2023-11-18T02:44:19;8.80;99.90
25112;DHT22;13092;51.996;4.458;2023-11-18T02:46:52;8.90;99.90
25112;DHT22;13092;51.996;4.458;2023-11-18T02:49:26;8.80;99.90
25112;DHT22;13092;51.996;4.458;2023-11-18T02:52:16;8.90;99.90
25112;DHT22;13092;51.996;4.458;2023-11-18T02:54:49;8.80;99.90
25112;DHT22;13092;51.996;4.458;2023-11-18T02:57:30;8.80;99.90
25112;DHT22;13092;51.996;4.458;2023-11-18T03:00:11;8.90;99.90
25112;DHT22;13092;51.996;4.458;2023-11-18T03:02:45;8.90;99.90
25112;DHT22;13092;51.996;4.458;2023-11-18T03:05:15;8.90;99.90
25112;DHT22;13092;51.996;4.458;2023-11-18T03:07:45;8.90;99.90
25112;DHT22;13092;51.996;4.458;2023-11-18T03:10:16;8.70;99.90
25112;DHT22;13092;51.996;4.458;2023-11-18T03:13:01;8.90;99.90
25112;DHT22;13092;51.996;4.458;2023-11-18T03:15:45;8.90;99.90
25112;DHT22;13092;51.996;4.458;2023-11-18T03:18:28;8.90;99.90
25112;DHT22;13092;51.996;4.458;2023-11-18T03:20:59;8.90;99.90
25112;DHT22;13092;51.996;4.458;2023-11-18T03:23:27;8.90;99.90
25112;DHT22;13092;51.996;4.458;2023-11-18T03:26:00;8.90;99.90
25112;DHT22;13092;51.996;4.458;2023-11-18T03:28:32;8.80;99.90
25112;DHT22;13092;51.996;4.458;2023-11-18T03:31:24;9.00;99.90
25112;DHT22;13092;51.996;4.458;2023-11-18T03:34:01;8.90;99.90
25112;DHT22;13092;51.996;4.458;2023-11-18T03:36:44;8.80;99.90
25112;DHT22;13092;51.996;4.458;2023-11-18T03:39:23;8.90;99.90
25112;DHT22;13092;51.996;4.458;2023-11-18T03:41:56;8.90;99.90
25112;DHT22;13092;51.996;4.458;2023-11-18T03:44:37;8.90;99.90
25112;DHT22;13092;51.996;4.458;2023-11-18T03:47:20;8.90;99.90
25112;DHT22;13092;51.996;4.458;2023-11-18T03:49:51;8.90;99.90
25112;DHT22;13092;51.996;4.458;2023-11-18T03:52:22;9.00;99.90
25112;DHT22;13092;51.996;4.458;2023-11-18T03:54:55;9.00;99.90
25112;DHT22;13092;51.996;4.458;2023-11-18T03:57:26;9.00;99.90
25112;DHT22;13092;51.996;4.458;2023-11-18T03:59:58;9.00;99.90
25112;DHT22;13092;51.996;4.458;2023-11-18T04:02:43;9.00;99.90
25112;DHT22;13092;51.996;4.458;2023-11-18T04:05:16;8.90;99.90
25112;DHT22;13092;51.996;4.458;2023-11-18T04:07:48;9.00;99.90
25112;DHT22;13092;51.996;4.458;2023-11-18T04:10:26;8.90;99.90
25112;DHT22;13092;51.996;4.458;2023-11-18T04:13:04;8.90;99.90
25112;DHT22;13092;51.996;4.458;2023-11-18T04:15:41;8.90;99.90
25112;DHT22;13092;51.996;4.458;2023-11-18T04:18:13;8.90;99.90
25112;DHT22;13092;51.996;4.458;2023-11-18T04:20:42;9.10;99.90
25112;DHT22;13092;51.996;4.458;2023-11-18T04:23:10;9.00;99.90
25112;DHT22;13092;51.996;4.458;2023-11-18T04:25:41;9.00;99.90
25112;DHT22;13092;51.996;4.458;2023-11-18T04:28:26;9.00;99.90
25112;DHT22;13092;51.996;4.458;2023-11-18T04:31:04;9.00;99.90
25112;DHT22;13092;51.996;4.458;2023-11-18T04:33:35;8.90;99.90
25112;DHT22;13092;51.996;4.458;2023-11-18T04:36:06;9.00;99.90
25112;DHT22;13092;51.996;4.458;2023-11-18T04:38:42;8.90;99.90
25112;DHT22;13092;51.996;4.458;2023-11-18T04:41:17;8.90;99.90
25112;DHT22;13092;51.996;4.458;2023-11-18T04:43:45;9.00;99.90
25112;DHT22;13092;51.996;4.458;2023-11-18T04:46:14;9.00;99.90
25112;DHT22;13092;51.996;4.458;2023-11-18T04:48:52;9.00;99.90
25112;DHT22;13092;51.996;4.458;2023-11-18T04:51:39;9.00;99.90
25112;DHT22;13092;51.996;4.458;2023-11-18T04:54:27;9.00;99.90
25112;DHT22;13092;51.996;4.458;2023-11-18T04:57:03;9.10;99.90
25112;DHT22;13092;51.996;4.458;2023-11-18T04:59:32;9.00;99.90
25112;DHT22;13092;51.996;4.458;2023-11-18T05:02:03;9.00;99.90
25112;DHT22;13092;51.996;4.458;2023-11-18T05:04:33;9.10;99.90
25112;DHT22;13092;51.996;4.458;2023-11-18T05:07:12;9.10;99.90
25112;DHT22;13092;51.996;4.458;2023-11-18T05:09:45;9.10;99.90
25112;DHT22;13092;51.996;4.458;2023-11-18T05:12:28;9.00;99.90
25112;DHT22;13092;51.996;4.458;2023-11-18T05:15:07;9.10;99.90
25112;DHT22;13092;51.996;4.458;2023-11-18T05:17:38;9.10;99.90
25112;DHT22;13092;51.996;4.458;2023-11-18T05:20:22;9.10;99.90
25112;DHT22;13092;51.996;4.458;2023-11-18T05:22:54;9.10;99.90
25112;DHT22;13092;51.996;4.458;2023-11-18T05:25:39;9.00;99.90
25112;DHT22;13092;51.996;4.458;2023-11-18T05:28:08;9.00;99.90
25112;DHT22;13092;51.996;4.458;2023-11-18T05:30:41;9.10;99.90
25112;DHT22;13092;51.996;4.458;2023-11-18T05:33:10;9.00;99.90
25112;DHT22;13092;51.996;4.458;2023-11-18T05:35:51;9.00;99.90
25112;DHT22;13092;51.996;4.458;2023-11-18T05:38:22;9.00;99.90
25112;DHT22;13092;51.996;4.458;2023-11-18T05:40:55;9.00;99.90
25112;DHT22;13092;51.996;4.458;2023-11-18T05:43:25;9.00;99.90
25112;DHT22;13092;51.996;4.458;2023-11-18T05:46:09;9.10;99.90
25112;DHT22;13092;51.996;4.458;2023-11-18T05:48:48;9.00;99.90
25112;DHT22;13092;51.996;4.458;2023-11-18T05:51:25;9.00;99.90
25112;DHT22;13092;51.996;4.458;2023-11-18T05:54:03;9.00;99.90
25112;DHT22;13092;51.996;4.458;2023-11-18T05:56:49;8.90;99.90
25112;DHT22;13092;51.996;4.458;2023-11-18T05:59:17;8.90;99.90
25112;DHT22;13092;51.996;4.458;2023-11-18T06:02:12;9.00;99.90
25112;DHT22;13092;51.996;4.458;2023-11-18T06:04:45;8.90;99.90
25112;DHT22;13092;51.996;4.458;2023-11-18T06:07:17;9.00;99.90
25112;DHT22;13092;51.996;4.458;2023-11-18T06:09:46;8.90;99.90
25112;DHT22;13092;51.996;4.458;2023-11-18T06:12:14;9.00;99.90
25112;DHT22;13092;51.996;4.458;2023-11-18T06:14:53;8.90;99.90
25112;DHT22;13092;51.996;4.458;2023-11-18T06:17:29;9.00;99.90
25112;DHT22;13092;51.996;4.458;2023-11-18T06:19:58;8.90;99.90
25112;DHT22;13092;51.996;4.458;2023-11-18T06:22:40;9.10;99.90
25112;DHT22;13092;51.996;4.458;2023-11-18T06:25:27;9.00;99.90
25112;DHT22;13092;51.996;4.458;2023-11-18T06:28:11;8.80;99.90
25112;DHT22;13092;51.996;4.458;2023-11-18T06:30:46;9.00;99.90
25112;DHT22;13092;51.996;4.458;2023-11-18T06:33:18;8.90;99.90
25112;DHT22;13092;51.996;4.458;2023-11-18T06:35:51;8.90;99.90
25112;DHT22;13092;51.996;4.458;2023-11-18T06:38:23;8.90;99.90
25112;DHT22;13092;51.996;4.458;2023-11-18T06:40:52;9.00;99.90
25112;DHT22;13092;51.996;4.458;2023-11-18T06:43:20;9.00;99.90
25112;DHT22;13092;51.996;4.458;2023-11-18T06:45:48;9.10;99.90
25112;DHT22;13092;51.996;4.458;2023-11-18T06:48:16;9.00;99.90
25112;DHT22;13092;51.996;4.458;2023-11-18T06:50:47;9.00;99.90
25112;DHT22;13092;51.996;4.458;2023-11-18T06:53:15;9.00;99.90
25112;DHT22;13092;51.996;4.458;2023-11-18T06:55:45;8.90;99.90
25112;DHT22;13092;51.996;4.458;2023-11-18T06:58:16;8.90;99.90
25112;DHT22;13092;51.996;4.458;2023-11-18T07:00:45;9.00;99.90
25112;DHT22;13092;51.996;4.458;2023-11-18T07:03:15;8.90;99.90
25112;DHT22;13092;51.996;4.458;2023-11-18T07:05:43;9.00;99.90
25112;DHT22;13092;51.996;4.458;2023-11-18T07:08:12;9.00;99.90
25112;DHT22;13092;51.996;4.458;2023-11-18T07:10:41;9.00;99.90
25112;DHT22;13092;51.996;4.458;2023-11-18T07:13:10;9.00;99.90
25112;DHT22;13092;51.996;4.458;2023-11-18T07:15:39;9.00;99.90
25112;DHT22;13092;51.996;4.458;2023-11-18T07:18:08;9.00;99.90
25112;DHT22;13092;51.996;4.458;2023-11-18T07:20:37;9.10;99.90
25112;DHT22;13092;51.996;4.458;2023-11-18T07:23:08;9.10;99.90
25112;DHT22;13092;51.996;4.458;2023-11-18T07:25:37;9.10;99.90
25112;DHT22;13092;51.996;4.458;2023-11-18T07:28:05;9.10;99.90
25112;DHT22;13092;51.996;4.458;2023-11-18T07:30:37;9.10;99.90
25112;DHT22;13092;51.996;4.458;2023-11-18T07:33:05;9.20;99.90
25112;DHT22;13092;51.996;4.458;2023-11-18T07:35:35;9.10;99.90
25112;DHT22;13092;51.996;4.458;2023-11-18T07:38:08;9.30;99.90
25112;DHT22;13092;51.996;4.458;2023-11-18T07:40:37;9.20;99.90
25112;DHT22;13092;51.996;4.458;2023-11-18T07:43:10;9.10;99.90
25112;DHT22;13092;51.996;4.458;2023-11-18T07:45:40;9.10;99.90
25112;DHT22;13092;51.996;4.458;2023-11-18T07:48:10;9.10;99.90
25112;DHT22;13092;51.996;4.458;2023-11-18T07:50:40;9.10;99.90
25112;DHT22;13092;51.996;4.458;2023-11-18T07:53:08;9.10;99.90
25112;DHT22;13092;51.996;4.458;2023-11-18T07:55:37;9.20;99.90
25112;DHT22;13092;51.996;4.458;2023-11-18T07:58:08;9.10;99.90
25112;DHT22;13092;51.996;4.458;2023-11-18T08:00:42;9.10;99.90
25112;DHT22;13092;51.996;4.458;2023-11-18T08:03:12;9.10;99.90
25112;DHT22;13092;51.996;4.458;2023-11-18T08:05:41;9.10;99.90
25112;DHT22;13092;51.996;4.458;2023-11-18T08:08:11;9.10;99.90
25112;DHT22;13092;51.996;4.458;2023-11-18T08:10:40;9.00;99.90
25112;DHT22;13092;51.996;4.458;2023-11-18T08:13:10;9.10;99.90
25112;DHT22;13092;51.996;4.458;2023-11-18T08:15:42;9.10;99.90
25112;DHT22;13092;51.996;4.458;2023-11-18T08:18:12;9.20;99.90
25112;DHT22;13092;51.996;4.458;2023-11-18T08:20:40;9.20;99.90
25112;DHT22;13092;51.996;4.458;2023-11-18T08:23:10;9.00;99.90
25112;DHT22;13092;51.996;4.458;2023-11-18T08:25:38;9.10;99.90
25112;DHT22;13092;51.996;4.458;2023-11-18T08:28:08;9.30;99.90
25112;DHT22;13092;51.996;4.458;2023-11-18T08:30:37;9.20;99.90
25112;DHT22;13092;51.996;4.458;2023-11-18T08:33:08;9.30;99.90
25112;DHT22;13092;51.996;4.458;2023-11-18T08:35:36;9.10;99.90
25112;DHT22;13092;51.996;4.458;2023-11-18T08:38:05;9.10;99.90
25112;DHT22;13092;51.996;4.458;2023-11-18T08:40:36;9.10;99.90
25112;DHT22;13092;51.996;4.458;2023-11-18T08:43:05;9.20;99.90
25112;DHT22;13092;51.996;4.458;2023-11-18T08:45:34;9.10;99.90
25112;DHT22;13092;51.996;4.458;2023-11-18T08:48:04;9.00;99.90
25112;DHT22;13092;51.996;4.458;2023-11-18T08:50:39;9.10;99.90
25112;DHT22;13092;51.996;4.458;2023-11-18T08:53:09;9.00;99.90
25112;DHT22;13092;51.996;4.458;2023-11-18T08:55:39;9.00;99.90
25112;DHT22;13092;51.996;4.458;2023-11-18T08:58:10;9.00;99.90
25112;DHT22;13092;51.996;4.458;2023-11-18T09:00:48;9.00;99.90
25112;DHT22;13092;51.996;4.458;2023-11-18T09:03:20;8.90;99.90
25112;DHT22;13092;51.996;4.458;2023-11-18T09:06:05;9.00;99.90
25112;DHT22;13092;51.996;4.458;2023-11-18T09:08:45;9.00;99.90
25112;DHT22;13092;51.996;4.458;2023-11-18T09:11:21;9.10;99.90
25112;DHT22;13092;51.996;4.458;2023-11-18T09:13:51;9.00;99.90
25112;DHT22;13092;51.996;4.458;2023-11-18T09:16:21;9.00;99.90
25112;DHT22;13092;51.996;4.458;2023-11-18T09:18:51;9.00;99.90
25112;DHT22;13092;51.996;4.458;2023-11-18T09:21:21;9.10;99.90
25112;DHT22;13092;51.996;4.458;2023-11-18T09:23:52;9.10;99.90
25112;DHT22;13092;51.996;4.458;2023-11-18T09:26:23;9.10;99.90
25112;DHT22;13092;51.996;4.458;2023-11-18T09:28:53;9.10;99.90
25112;DHT22;13092;51.996;4.458;2023-11-18T09:31:21;9.10;99.90
25112;DHT22;13092;51.996;4.458;2023-11-18T09:33:50;9.40;99.90
25112;DHT22;13092;51.996;4.458;2023-11-18T09:36:22;9.20;99.90
25112;DHT22;13092;51.996;4.458;2023-11-18T09:38:51;9.20;99.90
25112;DHT22;13092;51.996;4.458;2023-11-18T09:41:23;9.20;99.90
25112;DHT22;13092;51.996;4.458;2023-11-18T09:43:55;9.20;99.90
25112;DHT22;13092;51.996;4.458;2023-11-18T09:46:25;9.30;99.90
25112;DHT22;13092;51.996;4.458;2023-11-18T09:49:15;9.30;99.90
25112;DHT22;13092;51.996;4.458;2023-11-18T09:51:46;9.30;99.90
25112;DHT22;13092;51.996;4.458;2023-11-18T09:54:19;9.30;99.90
25112;DHT22;13092;51.996;4.458;2023-11-18T09:56:55;9.40;99.90
25112;DHT22;13092;51.996;4.458;2023-11-18T09:59:42;9.30;99.90
25112;DHT22;13092;51.996;4.458;2023-11-18T10:02:12;9.30;99.90
25112;DHT22;13092;51.996;4.458;2023-11-18T10:04:41;9.40;99.90
25112;DHT22;13092;51.996;4.458;2023-11-18T10:07:15;9.40;99.90
25112;DHT22;13092;51.996;4.458;2023-11-18T10:09:46;9.40;99.90
25112;DHT22;13092;51.996;4.458;2023-11-18T10:12:16;9.40;99.90
25112;DHT22;13092;51.996;4.458;2023-11-18T10:14:51;9.40;99.90
25112;DHT22;13092;51.996;4.458;2023-11-18T10:17:24;9.60;99.90
25112;DHT22;13092;51.996;4.458;2023-11-18T10:19:54;9.50;99.90
25112;DHT22;13092;51.996;4.458;2023-11-18T10:22:27;9.50;99.90
25112;DHT22;13092;51.996;4.458;2023-11-18T10:24:57;9.50;99.90
25112;DHT22;13092;51.996;4.458;2023-11-18T10:27:28;9.50;99.90
25112;DHT22;13092;51.996;4.458;2023-11-18T10:30:02;9.50;99.90
25112;DHT22;13092;51.996;4.458;2023-11-18T10:32:30;9.50;99.90
25112;DHT22;13092;51.996;4.458;2023-11-18T10:35:04;9.50;99.90
25112;DHT22;13092;51.996;4.458;2023-11-18T10:37:41;9.60;99.90
25112;DHT22;13092;51.996;4.458;2023-11-18T10:40:12;9.60;99.90
25112;DHT22;13092;51.996;4.458;2023-11-18T10:42:42;9.60;99.90
25112;DHT22;13092;51.996;4.458;2023-11-18T10:45:23;9.50;99.90
25112;DHT22;13092;51.996;4.458;2023-11-18T10:47:54;9.60;99.90
25112;DHT22;13092;51.996;4.458;2023-11-18T10:50:25;9.60;99.90
25112;DHT22;13092;51.996;4.458;2023-11-18T10:53:02;9.60;99.90
25112;DHT22;13092;51.996;4.458;2023-11-18T10:55:38;9.50;99.90
25112;DHT22;13092;51.996;4.458;2023-11-18T10:58:07;9.50;99.90
25112;DHT22;13092;51.996;4.458;2023-11-18T11:00:51;9.40;99.90
25112;DHT22;13092;51.996;4.458;2023-11-18T11:03:22;9.60;99.90
25112;DHT22;13092;51.996;4.458;2023-11-18T11:05:52;9.40;99.90
25112;DHT22;13092;51.996;4.458;2023-11-18T11:08:24;9.50;99.90
25112;DHT22;13092;51.996;4.458;2023-11-18T11:11:07;9.50;99.90
25112;DHT22;13092;51.996;4.458;2023-11-18T11:13:36;9.50;99.90
25112;DHT22;13092;51.996;4.458;2023-11-18T11:16:19;9.50;99.90
25112;DHT22;13092;51.996;4.458;2023-11-18T11:19:52;9.70;99.90
25112;DHT22;13092;51.996;4.458;2023-11-18T11:23:13;9.60;99.90
25112;DHT22;13092;51.996;4.458;2023-11-18T11:27:05;9.60;99.90
25112;DHT22;13092;51.996;4.458;2023-11-18T11:30:10;9.60;99.90
25112;DHT22;13092;51.996;4.458;2023-11-18T11:32:48;9.60;99.90
25112;DHT22;13092;51.996;4.458;2023-11-18T11:35:22;9.60;99.90
25112;DHT22;13092;51.996;4.458;2023-11-18T11:37:53;9.50;99.90
25112;DHT22;13092;51.996;4.458;2023-11-18T11:40:24;9.60;99.90
25112;DHT22;13092;51.996;4.458;2023-11-18T11:42:58;9.60;99.90
25112;DHT22;13092;51.996;4.458;2023-11-18T11:45:28;9.60;99.90
25112;DHT22;13092;51.996;4.458;2023-11-18T11:47:59;9.70;99.90
25112;DHT22;13092;51.996;4.458;2023-11-18T11:51:00;9.70;99.90
25112;DHT22;13092;51.996;4.458;2023-11-18T11:53:35;9.90;99.90
25112;DHT22;13092;51.996;4.458;2023-11-18T11:56:07;9.70;99.90
25112;DHT22;13092;51.996;4.458;2023-11-18T11:58:42;9.80;99.90
25112;DHT22;13092;51.996;4.458;2023-11-18T12:01:18;9.80;99.90
25112;DHT22;13092;51.996;4.458;2023-11-18T12:03:52;9.80;99.90
25112;DHT22;13092;51.996;4.458;2023-11-18T12:06:26;9.80;99.90
25112;DHT22;13092;51.996;4.458;2023-11-18T12:08:56;9.80;99.90
25112;DHT22;13092;51.996;4.458;2023-11-18T12:11:25;9.80;99.90
25112;DHT22;13092;51.996;4.458;2023-11-18T12:14:05;9.80;99.90
25112;DHT22;13092;51.996;4.458;2023-11-18T12:17:01;9.90;99.90
25112;DHT22;13092;51.996;4.458;2023-11-18T12:19:35;9.90;99.90
25112;DHT22;13092;51.996;4.458;2023-11-18T12:22:14;9.90;99.90
25112;DHT22;13092;51.996;4.458;2023-11-18T12:28:08;9.90;99.90
25112;DHT22;13092;51.996;4.458;2023-11-18T12:30:41;9.90;99.90
25112;DHT22;13092;51.996;4.458;2023-11-18T12:33:19;9.90;99.90
25112;DHT22;13092;51.996;4.458;2023-11-18T12:36:36;9.80;99.90
25112;DHT22;13092;51.996;4.458;2023-11-18T12:39:39;9.90;99.90
25112;DHT22;13092;51.996;4.458;2023-11-18T12:42:25;9.90;99.90
25112;DHT22;13092;51.996;4.458;2023-11-18T12:45:25;9.90;99.90
25112;DHT22;13092;51.996;4.458;2023-11-18T12:48:05;10.00;99.90
25112;DHT22;13092;51.996;4.458;2023-11-18T12:50:39;9.90;99.90
25112;DHT22;13092;51.996;4.458;2023-11-18T12:53:07;10.00;99.90
25112;DHT22;13092;51.996;4.458;2023-11-18T12:55:36;9.90;99.90
25112;DHT22;13092;51.996;4.458;2023-11-18T12:58:04;9.90;99.90
25112;DHT22;13092;51.996;4.458;2023-11-18T13:00:32;10.00;99.90
25112;DHT22;13092;51.996;4.458;2023-11-18T13:03:04;10.00;99.90
25112;DHT22;13092;51.996;4.458;2023-11-18T13:05:37;10.00;99.90
25112;DHT22;13092;51.996;4.458;2023-11-18T13:08:05;10.10;99.90
25112;DHT22;13092;51.996;4.458;2023-11-18T13:10:36;10.10;99.90
25112;DHT22;13092;51.996;4.458;2023-11-18T13:13:05;10.00;99.90
25112;DHT22;13092;51.996;4.458;2023-11-18T13:15:35;10.00;99.90
25112;DHT22;13092;51.996;4.458;2023-11-18T13:18:05;10.00;99.90
25112;DHT22;13092;51.996;4.458;2023-11-18T13:20:35;10.00;99.90
25112;DHT22;13092;51.996;4.458;2023-11-18T13:23:04;10.10;99.90
25112;DHT22;13092;51.996;4.458;2023-11-18T13:25:36;10.20;99.90
25112;DHT22;13092;51.996;4.458;2023-11-18T13:28:08;10.10;99.90
25112;DHT22;13092;51.996;4.458;2023-11-18T13:30:37;10.10;99.90
25112;DHT22;13092;51.996;4.458;2023-11-18T13:33:08;10.10;99.90
25112;DHT22;13092;51.996;4.458;2023-11-18T13:35:39;10.10;99.90
25112;DHT22;13092;51.996;4.458;2023-11-18T13:38:09;10.20;99.90
25112;DHT22;13092;51.996;4.458;2023-11-18T13:40:42;10.10;99.90
25112;DHT22;13092;51.996;4.458;2023-11-18T13:43:11;10.30;99.90
25112;DHT22;13092;51.996;4.458;2023-11-18T13:45:40;10.20;99.90
25112;DHT22;13092;51.996;4.458;2023-11-18T13:48:12;10.10;99.90
25112;DHT22;13092;51.996;4.458;2023-11-18T13:50:43;10.20;99.90
25112;DHT22;13092;51.996;4.458;2023-11-18T13:53:13;10.20;99.90
25112;DHT22;13092;51.996;4.458;2023-11-18T13:55:42;10.20;99.90
25112;DHT22;13092;51.996;4.458;2023-11-18T13:58:10;10.20;99.90
25112;DHT22;13092;51.996;4.458;2023-11-18T14:00:40;10.20;99.90
25112;DHT22;13092;51.996;4.458;2023-11-18T14:03:09;10.30;99.90
25112;DHT22;13092;51.996;4.458;2023-11-18T14:05:41;10.20;99.90
25112;DHT22;13092;51.996;4.458;2023-11-18T14:08:17;10.30;99.90
25112;DHT22;13092;51.996;4.458;2023-11-18T14:10:47;10.20;99.90
25112;DHT22;13092;51.996;4.458;2023-11-18T14:13:29;10.30;99.90
25112;DHT22;13092;51.996;4.458;2023-11-18T14:15:58;10.30;99.90
25112;DHT22;13092;51.996;4.458;2023-11-18T14:18:26;10.30;99.90
25112;DHT22;13092;51.996;4.458;2023-11-18T14:20:56;10.30;99.90
25112;DHT22;13092;51.996;4.458;2023-11-18T14:23:25;10.30;99.90
25112;DHT22;13092;51.996;4.458;2023-11-18T14:25:53;10.30;99.90
25112;DHT22;13092;51.996;4.458;2023-11-18T14:28:21;10.30;99.90
25112;DHT22;13092;51.996;4.458;2023-11-18T14:30:53;10.40;99.90
25112;DHT22;13092;51.996;4.458;2023-11-18T14:33:21;10.40;99.90
25112;DHT22;13092;51.996;4.458;2023-11-18T14:35:49;10.40;99.90
25112;DHT22;13092;51.996;4.458;2023-11-18T14:38:19;10.40;99.90
25112;DHT22;13092;51.996;4.458;2023-11-18T14:40:48;10.40;99.90
25112;DHT22;13092;51.996;4.458;2023-11-18T14:43:16;10.50;99.90
25112;DHT22;13092;51.996;4.458;2023-11-18T14:45:45;10.60;99.90
25112;DHT22;13092;51.996;4.458;2023-11-18T14:48:13;10.50;99.90
25112;DHT22;13092;51.996;4.458;2023-11-18T14:50:41;10.50;99.90
25112;DHT22;13092;51.996;4.458;2023-11-18T14:53:10;10.50;99.90
25112;DHT22;13092;51.996;4.458;2023-11-18T14:55:40;10.50;99.90
25112;DHT22;13092;51.996;4.458;2023-11-18T14:58:08;10.50;99.90
25112;DHT22;13092;51.996;4.458;2023-11-18T15:00:38;10.60;99.90
25112;DHT22;13092;51.996;4.458;2023-11-18T15:03:06;10.50;99.90
25112;DHT22;13092;51.996;4.458;2023-11-18T15:05:35;10.60;99.90
25112;DHT22;13092;51.996;4.458;2023-11-18T15:08:04;10.60;99.90
25112;DHT22;13092;51.996;4.458;2023-11-18T15:10:36;10.60;99.90
25112;DHT22;13092;51.996;4.458;2023-11-18T15:13:08;10.60;99.90
25112;DHT22;13092;51.996;4.458;2023-11-18T15:15:42;10.70;99.90
25112;DHT22;13092;51.996;4.458;2023-11-18T15:18:14;10.70;99.90
25112;DHT22;13092;51.996;4.458;2023-11-18T15:20:44;10.70;99.90
25112;DHT22;13092;51.996;4.458;2023-11-18T15:23:15;10.70;99.90
25112;DHT22;13092;51.996;4.458;2023-11-18T15:25:45;10.70;99.90
25112;DHT22;13092;51.996;4.458;2023-11-18T15:28:18;10.80;99.90
25112;DHT22;13092;51.996;4.458;2023-11-18T15:30:50;10.80;99.90
25112;DHT22;13092;51.996;4.458;2023-11-18T15:33:19;10.80;99.90
25112;DHT22;13092;51.996;4.458;2023-11-18T15:35:52;10.80;99.90
25112;DHT22;13092;51.996;4.458;2023-11-18T15:38:19;10.90;99.90
25112;DHT22;13092;51.996;4.458;2023-11-18T15:40:51;11.00;99.90
25112;DHT22;13092;51.996;4.458;2023-11-18T15:43:34;10.90;99.90
25112;DHT22;13092;51.996;4.458;2023-11-18T15:46:23;10.90;99.90
25112;DHT22;13092;51.996;4.458;2023-11-18T15:49:03;11.00;99.90
25112;DHT22;13092;51.996;4.458;2023-11-18T15:51:40;11.00;99.90
25112;DHT22;13092;51.996;4.458;2023-11-18T15:54:09;11.00;99.90
25112;DHT22;13092;51.996;4.458;2023-11-18T15:56:44;11.00;99.90
25112;DHT22;13092;51.996;4.458;2023-11-18T16:02:00;11.10;99.90
25112;DHT22;13092;51.996;4.458;2023-11-18T16:04:33;11.00;99.90
25112;DHT22;13092;51.996;4.458;2023-11-18T16:07:01;11.10;99.90
25112;DHT22;13092;51.996;4.458;2023-11-18T16:09:30;11.20;99.90
25112;DHT22;13092;51.996;4.458;2023-11-18T16:11:58;11.20;99.90
25112;DHT22;13092;51.996;4.458;2023-11-18T16:14:33;11.20;99.90
25112;DHT22;13092;51.996;4.458;2023-11-18T16:17:13;11.20;99.90
25112;DHT22;13092;51.996;4.458;2023-11-18T16:19:42;11.30;99.90
25112;DHT22;13092;51.996;4.458;2023-11-18T16:22:10;11.30;99.90
25112;DHT22;13092;51.996;4.458;2023-11-18T16:24:41;11.30;99.90
25112;DHT22;13092;51.996;4.458;2023-11-18T16:27:09;11.40;99.90
25112;DHT22;13092;51.996;4.458;2023-11-18T16:29:54;11.50;99.90
25112;DHT22;13092;51.996;4.458;2023-11-18T16:32:45;11.40;99.90
25112;DHT22;13092;51.996;4.458;2023-11-18T16:35:19;11.40;99.90
25112;DHT22;13092;51.996;4.458;2023-11-18T16:37:48;11.40;99.90
25112;DHT22;13092;51.996;4.458;2023-11-18T16:40:21;11.60;99.90
25112;DHT22;13092;51.996;4.458;2023-11-18T16:42:52;11.60;99.90